Time;durP1;ratioP1;P1;durP2;ratioP2;P2;SDS_P1;SDS_P2;PMS_P1;PMS_P2;Temp;Humidity;BMP_temperature;BMP_pressure;BME280_temperature;BME280_humidity;BME280_pressure;Samples;Min_cycle;Max_cycle;Signal;HPM_P1;HPM_P2
2023/12/20 00:02:19;;;;;;;1.55;1.00;;;5.60;99.90;;;;;;4991630;28;20239;-77
2023/12/20 00:04:47;;;;;;;1.30;1.15;;;5.60;99.90;;;;;;4991894;28;20686;-76
2023/12/20 00:07:14;;;;;;;1.63;1.00;;;5.70;99.90;;;;;;4990549;28;20211;-77
2023/12/20 00:09:41;;;;;;;2.17;1.10;;;5.70;99.90;;;;;;4990468;28;20211;-75
2023/12/20 00:12:08;;;;;;;1.63;1.52;;;5.70;99.90;;;;;;4990599;28;20238;-77
2023/12/20 00:14:34;;;;;;;1.40;1.30;;;5.70;99.90;;;;;;4990571;28;20222;-78
2023/12/20 04:32:38;;;;;;;0.70;0.60;;;5.10;99.90;;;;;;5240978;22;20318;-76
2023/12/20 04:35:06;;;;;;;0.80;0.70;;;5.10;99.90;;;;;;4974706;28;20589;-74
2023/12/20 04:37:32;;;;;;;0.88;0.82;;;5.10;99.90;;;;;;4975268;28;20560;-76
2023/12/20 04:39:59;;;;;;;0.70;0.60;;;5.10;99.90;;;;;;4975061;28;20219;-75
2023/12/20 04:42:26;;;;;;;0.70;0.60;;;5.10;99.90;;;;;;4974992;28;20224;-76
2023/12/20 04:44:52;;;;;;;0.70;0.60;;;5.00;99.90;;;;;;4974781;28;20242;-77
2023/12/20 04:47:19;;;;;;;0.90;0.70;;;5.00;99.90;;;;;;4977161;28;20208;-78
2023/12/20 04:49:47;;;;;;;0.70;0.60;;;5.10;99.90;;;;;;4978305;28;20200;-77
2023/12/20 04:52:14;;;;;;;1.08;0.73;;;5.10;99.90;;;;;;4975128;28;20230;-76
2023/12/20 04:54:40;;;;;;;0.70;0.70;;;5.10;99.90;;;;;;4974598;28;20204;-77
2023/12/20 04:57:07;;;;;;;0.70;0.60;;;5.10;99.90;;;;;;4974595;28;20625;-76
2023/12/20 04:59:33;;;;;;;0.70;0.60;;;5.10;99.90;;;;;;4975724;28;20860;-76
2023/12/20 05:02:00;;;;;;;0.98;0.88;;;5.10;99.90;;;;;;4978360;28;20232;-78
2023/12/20 05:04:27;;;;;;;0.88;0.70;;;5.10;99.90;;;;;;4978354;28;20227;-76
2023/12/20 05:06:55;;;;;;;2.05;0.85;;;5.10;99.90;;;;;;4976897;28;20298;-76
2023/12/20 05:09:22;;;;;;;0.70;0.60;;;5.10;99.90;;;;;;4974758;28;20212;-77
2023/12/20 05:11:48;;;;;;;0.70;0.70;;;5.10;99.90;;;;;;4975497;28;20285;-76
2023/12/20 05:14:15;;;;;;;0.70;0.60;;;5.10;99.90;;;;;;4976287;28;20583;-75
2023/12/20 05:16:42;;;;;;;0.90;0.75;;;5.00;99.90;;;;;;4974239;28;20204;-76
2023/12/20 05:19:09;;;;;;;2.60;0.75;;;5.00;99.90;;;;;;4974354;28;20201;-75
2023/12/20 05:21:35;;;;;;;0.70;0.60;;;5.00;99.90;;;;;;4974321;28;20271;-75
2023/12/20 05:24:04;;;;;;;0.70;0.60;;;5.00;99.90;;;;;;4974132;28;20326;-74
2023/12/20 05:26:31;;;;;;;0.70;0.60;;;5.00;99.90;;;;;;4974236;28;20208;-75
2023/12/20 05:28:57;;;;;;;0.70;0.70;;;5.00;99.90;;;;;;4973922;28;20219;-75
2023/12/20 05:31:24;;;;;;;0.80;0.70;;;5.00;99.90;;;;;;4974070;28;20235;-75
2023/12/20 05:33:51;;;;;;;0.80;0.70;;;5.00;99.90;;;;;;4973573;28;20206;-74
2023/12/20 05:36:18;;;;;;;0.70;0.70;;;5.00;99.90;;;;;;4974399;28;20204;-73
2023/12/20 05:38:44;;;;;;;0.90;0.70;;;5.00;99.90;;;;;;4973550;28;20222;-72
2023/12/20 05:41:13;;;;;;;0.80;0.70;;;4.90;99.90;;;;;;4973655;28;20602;-73
2023/12/20 05:43:40;;;;;;;0.80;0.60;;;4.90;99.90;;;;;;4973941;28;20232;-73
2023/12/20 05:46:06;;;;;;;0.70;0.60;;;4.90;99.90;;;;;;4973693;28;20203;-73
2023/12/20 05:48:33;;;;;;;0.70;0.60;;;4.90;99.90;;;;;;4969047;28;20568;-72
2023/12/20 05:51:00;;;;;;;0.70;0.60;;;4.90;99.90;;;;;;4973070;28;20240;-73
2023/12/20 05:53:26;;;;;;;0.90;0.70;;;4.90;99.90;;;;;;4973554;28;20239;-73
2023/12/20 05:55:53;;;;;;;0.80;0.70;;;4.90;99.90;;;;;;4973524;28;20216;-73
2023/12/20 05:58:21;;;;;;;0.70;0.70;;;4.90;99.90;;;;;;4973459;28;20206;-73
2023/12/20 06:00:48;;;;;;;0.70;0.70;;;4.90;99.90;;;;;;4973063;28;20718;-73
2023/12/20 06:03:15;;;;;;;0.80;0.70;;;4.90;99.90;;;;;;4973579;28;20215;-73
2023/12/20 06:05:42;;;;;;;0.70;0.70;;;4.90;99.90;;;;;;4973654;28;20602;-72
2023/12/20 06:08:09;;;;;;;0.70;0.60;;;4.90;99.90;;;;;;4973229;28;20215;-73
2023/12/20 06:10:35;;;;;;;1.58;1.35;;;4.90;99.90;;;;;;4974034;28;20600;-73
2023/12/20 06:13:04;;;;;;;2.17;0.73;;;4.90;99.90;;;;;;4973730;28;20207;-72
2023/12/20 06:15:32;;;;;;;0.80;0.70;;;4.90;99.90;;;;;;4974230;28;20204;-76
2023/12/20 06:17:59;;;;;;;0.70;0.60;;;4.90;99.90;;;;;;4976627;28;20215;-77
2023/12/20 06:20:25;;;;;;;0.70;0.60;;;4.90;99.90;;;;;;4975868;28;20218;-75
2023/12/20 06:22:52;;;;;;;0.80;0.77;;;4.90;99.90;;;;;;4975183;28;20219;-76
2023/12/20 06:25:19;;;;;;;1.02;0.75;;;4.90;99.90;;;;;;4975848;28;20220;-76
2023/12/20 06:27:46;;;;;;;0.98;0.88;;;4.90;99.90;;;;;;4976096;28;20222;-77
2023/12/20 06:30:13;;;;;;;1.05;0.95;;;4.90;99.90;;;;;;4973062;28;20208;-77
2023/12/20 06:32:42;;;;;;;4.35;1.05;;;4.90;99.90;;;;;;4975685;28;20275;-77
2023/12/20 06:35:10;;;;;;;0.70;0.60;;;4.90;99.90;;;;;;4975470;28;20748;-77
2023/12/20 06:37:36;;;;;;;1.10;0.90;;;4.90;99.90;;;;;;4975405;28;20208;-77
2023/12/20 06:40:04;;;;;;;1.27;0.95;;;4.90;99.90;;;;;;4973691;28;20685;-74
2023/12/20 06:42:30;;;;;;;0.90;0.70;;;4.90;99.90;;;;;;4975402;28;20251;-75
2023/12/20 06:44:57;;;;;;;1.20;1.10;;;4.90;99.90;;;;;;4972139;28;20251;-72
2023/12/20 06:47:24;;;;;;;0.70;0.70;;;4.90;99.90;;;;;;4972567;28;20664;-71
2023/12/20 06:49:52;;;;;;;2.05;0.75;;;4.90;99.90;;;;;;4972508;28;20262;-76
2023/12/20 06:52:19;;;;;;;0.70;0.60;;;4.90;99.90;;;;;;4973891;28;20227;-76
2023/12/20 06:54:46;;;;;;;1.00;0.70;;;4.90;99.90;;;;;;4973769;28;20213;-74
2023/12/20 06:57:12;;;;;;;0.80;0.70;;;4.90;99.90;;;;;;4972345;28;20215;-71
2023/12/20 06:59:40;;;;;;;0.70;0.68;;;4.90;99.90;;;;;;4972145;28;20291;-72
2023/12/20 07:02:07;;;;;;;0.90;0.80;;;5.00;99.90;;;;;;4975255;28;20575;-71
2023/12/20 07:04:34;;;;;;;0.90;0.80;;;5.00;99.90;;;;;;4972436;28;20226;-73
2023/12/20 07:07:02;;;;;;;1.20;0.80;;;5.10;99.90;;;;;;4972050;28;20312;-74
2023/12/20 07:09:29;;;;;;;0.80;0.70;;;5.10;99.90;;;;;;4975662;28;20208;-74
2023/12/20 07:11:55;;;;;;;0.80;0.73;;;5.20;99.90;;;;;;4972059;28;20259;-75
2023/12/20 07:14:22;;;;;;;1.00;0.90;;;5.20;99.90;;;;;;4972345;28;20204;-74
2023/12/20 07:16:49;;;;;;;0.90;0.80;;;5.20;99.90;;;;;;4972073;28;20220;-75
2023/12/20 07:19:16;;;;;;;1.10;0.70;;;5.20;99.90;;;;;;4971489;28;20231;-74
2023/12/20 07:21:43;;;;;;;0.70;0.70;;;5.30;99.90;;;;;;4972932;28;20232;-73
2023/12/20 07:24:11;;;;;;;0.82;0.82;;;5.20;99.90;;;;;;4977758;28;20249;-74
2023/12/20 07:26:38;;;;;;;1.40;0.88;;;5.20;99.90;;;;;;4972100;28;20208;-74
2023/12/20 07:29:05;;;;;;;1.38;1.23;;;5.20;99.90;;;;;;4971564;28;20291;-73
2023/12/20 07:31:32;;;;;;;0.82;0.75;;;5.20;99.90;;;;;;4971935;28;20239;-76
2023/12/20 07:33:59;;;;;;;1.05;0.95;;;5.10;99.90;;;;;;4972080;28;20216;-75
2023/12/20 07:36:25;;;;;;;0.90;0.80;;;5.10;99.90;;;;;;4972157;28;20211;-74
2023/12/20 07:38:52;;;;;;;3.78;1.42;;;5.10;99.90;;;;;;4972015;28;20294;-75
2023/12/20 07:41:21;;;;;;;1.55;1.10;;;5.10;99.90;;;;;;4971714;28;20263;-73
2023/12/20 07:43:49;;;;;;;1.42;1.33;;;5.20;99.90;;;;;;4971975;28;20254;-72
2023/12/20 07:46:16;;;;;;;3.40;1.30;;;5.20;99.90;;;;;;4971699;28;20231;-69
2023/12/20 07:48:42;;;;;;;1.45;1.35;;;5.20;99.90;;;;;;4972083;28;20295;-71
2023/12/20 07:51:09;;;;;;;1.20;1.10;;;5.10;99.90;;;;;;4971443;28;20228;-72
2023/12/20 07:53:37;;;;;;;3.60;1.40;;;5.10;99.90;;;;;;4972179;28;20212;-74
2023/12/20 07:56:14;;;;;;;2.25;1.45;;;5.00;99.90;;;;;;4972770;28;20203;-75
2023/12/20 07:58:42;;;;;;;2.55;1.85;;;5.00;99.90;;;;;;4970503;28;20208;-74
2023/12/20 08:01:08;;;;;;;1.55;1.45;;;5.00;99.90;;;;;;4974916;28;20231;-73
2023/12/20 08:03:35;;;;;;;3.17;1.95;;;5.00;99.90;;;;;;4975875;28;20214;-73
2023/12/20 08:06:03;;;;;;;2.40;1.90;;;5.00;99.90;;;;;;4975394;28;20566;-74
2023/12/20 08:08:30;;;;;;;2.78;1.95;;;4.90;99.90;;;;;;4975482;28;20573;-73
2023/12/20 08:11:00;;;;;;;1.88;1.50;;;4.90;99.90;;;;;;4976208;28;20228;-77
2023/12/20 08:13:27;;;;;;;1.70;1.60;;;5.00;99.90;;;;;;4975809;28;20570;-74
2023/12/20 08:15:55;;;;;;;2.03;1.48;;;4.90;99.90;;;;;;4975771;28;20235;-76
2023/12/20 08:18:22;;;;;;;1.40;1.30;;;4.90;99.90;;;;;;4976391;28;20223;-77
2023/12/20 08:20:49;;;;;;;2.10;1.50;;;4.90;99.90;;;;;;4980280;28;20231;-77
2023/12/20 08:23:16;;;;;;;2.15;1.95;;;4.90;99.90;;;;;;4979418;28;20211;-77
2023/12/20 08:25:43;;;;;;;1.42;1.33;;;4.90;99.90;;;;;;4981858;28;20238;-77
2023/12/20 08:28:10;;;;;;;2.75;1.90;;;4.90;99.90;;;;;;4978167;28;20660;-77
2023/12/20 08:30:37;;;;;;;6.65;2.20;;;4.90;99.90;;;;;;4978118;28;20278;-77
2023/12/20 08:33:11;;;;;;;1.70;1.60;;;4.90;99.90;;;;;;4981971;28;20212;-81
2023/12/20 08:35:39;;;;;;;2.13;1.90;;;4.90;99.90;;;;;;4975222;28;20641;-78
2023/12/20 08:38:06;;;;;;;3.22;1.67;;;4.90;99.90;;;;;;4978951;28;20215;-77
2023/12/20 08:40:33;;;;;;;2.15;1.75;;;4.90;99.90;;;;;;4969137;28;20232;-79
2023/12/20 08:42:59;;;;;;;2.08;1.85;;;4.90;99.90;;;;;;4976981;28;20212;-77
2023/12/20 08:45:26;;;;;;;2.05;1.52;;;4.90;99.90;;;;;;4975835;28;20692;-77
2023/12/20 08:47:53;;;;;;;1.90;1.70;;;4.90;99.90;;;;;;4976435;28;20236;-79
2023/12/20 08:50:21;;;;;;;1.73;1.40;;;4.90;99.90;;;;;;4970427;28;20214;-77
2023/12/20 08:52:48;;;;;;;1.65;1.50;;;4.90;99.90;;;;;;4972180;28;20224;-77
2023/12/20 08:55:16;;;;;;;2.28;1.73;;;4.90;99.90;;;;;;4971820;28;20597;-76
2023/12/20 08:57:43;;;;;;;1.90;1.63;;;4.90;99.90;;;;;;4972692;28;20282;-76
2023/12/20 09:00:11;;;;;;;2.05;1.70;;;4.90;99.90;;;;;;4972921;28;20302;-76
2023/12/20 09:02:38;;;;;;;1.30;1.20;;;4.90;99.90;;;;;;4973391;28;20231;-75
2023/12/20 09:05:05;;;;;;;4.28;1.90;;;4.90;99.90;;;;;;4972883;28;20231;-76
2023/12/20 09:07:34;;;;;;;3.65;1.67;;;4.90;99.90;;;;;;4968908;28;20212;-77
2023/12/20 09:10:04;;;;;;;1.38;1.27;;;5.00;99.90;;;;;;4974630;28;20608;-77
2023/12/20 09:12:43;;;;;;;1.70;1.45;;;5.10;99.90;;;;;;4974126;28;20234;-76
2023/12/20 09:15:10;;;;;;;1.75;1.65;;;5.10;99.90;;;;;;4975030;28;20231;-75
2023/12/20 09:17:36;;;;;;;1.42;1.05;;;5.20;99.90;;;;;;4976334;28;20216;-76
2023/12/20 09:20:06;;;;;;;1.35;1.25;;;5.30;99.90;;;;;;4975270;28;20653;-78
2023/12/20 09:22:35;;;;;;;1.65;1.55;;;5.50;99.90;;;;;;4966181;28;20767;-76
2023/12/20 09:25:02;;;;;;;1.65;1.55;;;5.90;99.90;;;;;;4973726;28;20234;-77
2023/12/20 09:27:29;;;;;;;2.45;2.10;;;6.90;99.90;;;;;;4972234;28;20212;-77
2023/12/20 09:29:56;;;;;;;1.23;1.13;;;8.90;99.90;;;;;;4973216;28;20216;-75
2023/12/20 09:32:22;;;;;;;2.47;1.20;;;11.40;99.90;;;;;;4978654;28;20245;-80
2023/12/20 09:34:49;;;;;;;1.65;1.42;;;13.60;99.90;;;;;;4979731;28;20215;-77
2023/12/20 09:37:16;;;;;;;1.20;1.05;;;15.00;99.90;;;;;;4977450;28;20712;-80
2023/12/20 09:39:44;;;;;;;1.00;0.90;;;16.20;99.90;;;;;;4979562;28;20215;-78
2023/12/20 09:42:15;;;;;;;1.13;0.93;;;17.10;99.90;;;;;;4976334;28;20236;-78
2023/12/20 09:44:44;;;;;;;1.60;1.27;;;17.50;99.90;;;;;;4975524;28;20548;-77
2023/12/20 09:47:11;;;;;;;1.30;1.20;;;18.30;99.90;;;;;;4976267;28;20505;-78
2023/12/20 09:49:39;;;;;;;2.37;1.73;;;19.00;99.90;;;;;;4975459;28;20471;-78
2023/12/20 09:52:08;;;;;;;4.00;1.57;;;19.80;99.10;;;;;;4977345;28;20492;-75
2023/12/20 09:54:35;;;;;;;2.70;1.63;;;20.30;96.90;;;;;;4975172;28;20463;-79
2023/12/20 09:57:05;;;;;;;4.43;1.57;;;20.90;96.10;;;;;;4974501;28;20470;-77
2023/12/20 09:59:32;;;;;;;2.90;1.00;;;21.10;94.60;;;;;;4973026;28;20478;-74
2023/12/20 10:02:05;;;;;;;2.63;1.30;;;20.70;94.10;;;;;;4973717;28;20558;-72
2023/12/20 10:04:33;;;;;;;1.40;1.00;;;20.50;94.00;;;;;;4972958;28;20846;-76
2023/12/20 10:07:04;;;;;;;1.20;0.87;;;21.20;94.30;;;;;;4972974;28;20487;-78
2023/12/20 10:09:33;;;;;;;0.90;0.80;;;20.70;92.80;;;;;;4974586;28;20972;-79
2023/12/20 10:12:00;;;;;;;2.23;0.97;;;20.80;92.90;;;;;;4973968;28;20522;-80
2023/12/20 10:14:28;;;;;;;1.70;1.23;;;21.10;92.00;;;;;;4969175;28;20913;-78
2023/12/20 10:17:02;;;;;;;1.73;1.13;;;21.20;92.20;;;;;;4960792;28;20475;-79
2023/12/20 10:19:29;;;;;;;2.60;1.27;;;21.40;91.80;;;;;;4971280;28;20459;-78
2023/12/20 10:21:56;;;;;;;4.40;1.43;;;21.40;91.60;;;;;;4963714;28;20570;-78
2023/12/20 10:24:22;;;;;;;1.37;1.10;;;19.90;92.70;;;;;;4971469;28;20996;-77
2023/12/20 10:27:01;;;;;;;2.60;1.30;;;17.60;94.10;;;;;;4958185;28;20490;-78
2023/12/20 10:29:33;;;;;;;1.30;1.20;;;15.30;95.60;;;;;;4971589;28;20446;-77
2023/12/20 10:31:59;;;;;;;1.23;1.10;;;13.20;98.00;;;;;;4972537;28;20503;-77
2023/12/20 10:34:26;;;;;;;1.27;0.95;;;11.90;99.60;;;;;;4972642;28;20852;-76
2023/12/20 10:36:54;;;;;;;1.95;0.98;;;11.00;99.90;;;;;;4978260;28;20201;-77
2023/12/20 10:39:22;;;;;;;1.15;0.93;;;10.40;99.90;;;;;;4975243;28;20208;-79
2023/12/20 10:41:49;;;;;;;1.48;1.00;;;9.80;99.90;;;;;;4975694;28;20238;-79
2023/12/20 10:44:16;;;;;;;1.50;1.15;;;9.30;99.90;;;;;;4973789;28;20211;-78
2023/12/20 10:46:51;;;;;;;1.35;1.15;;;9.00;99.90;;;;;;4972274;28;20223;-78
2023/12/20 10:49:19;;;;;;;1.70;1.45;;;8.60;99.90;;;;;;4972454;28;20253;-77
2023/12/20 10:51:48;;;;;;;1.63;1.02;;;8.40;99.90;;;;;;4974082;28;20210;-77
2023/12/20 10:54:15;;;;;;;3.58;1.67;;;8.20;99.90;;;;;;4972891;28;20218;-78
2023/12/20 10:56:42;;;;;;;1.55;1.00;;;8.20;99.90;;;;;;4971969;28;20921;-77
2023/12/20 10:59:12;;;;;;;1.50;1.02;;;8.00;99.90;;;;;;4972269;28;20209;-77
2023/12/20 11:01:41;;;;;;;1.85;1.00;;;7.80;99.90;;;;;;4972590;28;20630;-76
2023/12/20 11:04:12;;;;;;;5.55;1.50;;;7.60;99.90;;;;;;4972394;28;20295;-78
2023/12/20 11:06:46;;;;;;;2.28;1.67;;;7.40;99.90;;;;;;4971703;28;20224;-74
2023/12/20 11:09:19;;;;;;;1.00;0.90;;;7.10;99.90;;;;;;4971686;28;20219;-75
2023/12/20 11:12:03;;;;;;;2.33;2.17;;;7.00;99.90;;;;;;4972042;28;20232;-76
2023/12/20 11:14:38;;;;;;;6.97;1.70;;;6.80;99.90;;;;;;4973413;28;20216;-80
2023/12/20 11:17:08;;;;;;;3.05;0.90;;;6.70;99.90;;;;;;4967867;28;20214;-74
2023/12/20 11:19:44;;;;;;;1.27;0.98;;;6.60;99.90;;;;;;4968507;28;20216;-74
2023/12/20 11:22:10;;;;;;;2.15;1.35;;;6.50;99.90;;;;;;4971070;28;20235;-75
2023/12/20 11:24:46;;;;;;;1.20;1.10;;;6.40;99.90;;;;;;4972081;28;20208;-77
2023/12/20 11:27:14;;;;;;;1.30;1.20;;;6.30;99.90;;;;;;4971780;28;20282;-73
2023/12/20 11:29:40;;;;;;;2.95;1.60;;;6.20;99.90;;;;;;4971093;28;20592;-77
2023/12/20 11:32:31;;;;;;;1.00;0.90;;;6.20;99.90;;;;;;4971530;28;20232;-74
2023/12/20 11:35:00;;;;;;;2.97;0.80;;;6.10;99.90;;;;;;4968080;28;20696;-74
2023/12/20 11:37:31;;;;;;;1.35;1.25;;;6.10;99.90;;;;;;4970807;28;20681;-73
2023/12/20 11:40:02;;;;;;;1.70;1.58;;;6.10;99.90;;;;;;4971475;28;20211;-76
2023/12/20 11:42:29;;;;;;;2.08;1.45;;;6.10;99.90;;;;;;4971449;28;20255;-76
2023/12/20 11:44:57;;;;;;;0.82;0.80;;;6.10;99.90;;;;;;4971995;28;20669;-76
2023/12/20 11:47:24;;;;;;;1.48;1.00;;;6.00;99.90;;;;;;4970928;28;20230;-77
2023/12/20 11:49:51;;;;;;;2.22;1.80;;;6.10;99.90;;;;;;4971294;28;20751;-75
2023/12/20 11:52:19;;;;;;;2.05;0.98;;;6.10;99.90;;;;;;4971500;28;20689;-75
2023/12/20 11:54:45;;;;;;;2.88;1.60;;;6.10;99.90;;;;;;4971183;28;20579;-75
2023/12/20 11:57:12;;;;;;;1.00;0.85;;;6.20;99.90;;;;;;4971642;28;20208;-75
2023/12/20 11:59:39;;;;;;;2.03;1.10;;;6.10;99.90;;;;;;4971085;28;20211;-74
2023/12/20 12:02:06;;;;;;;1.65;1.25;;;6.10;99.90;;;;;;4973009;28;20246;-75
2023/12/20 12:04:33;;;;;;;3.00;0.90;;;6.00;99.90;;;;;;4970012;28;20215;-74
2023/12/20 12:06:59;;;;;;;1.10;1.00;;;5.90;99.90;;;;;;4968033;28;20220;-75
2023/12/20 12:09:28;;;;;;;3.08;1.40;;;5.90;99.90;;;;;;4971236;28;20214;-76
2023/12/20 12:11:54;;;;;;;3.33;1.67;;;5.90;99.90;;;;;;4971453;28;20712;-75
2023/12/20 12:14:21;;;;;;;1.40;1.30;;;5.90;99.90;;;;;;4968555;28;20217;-74
2023/12/20 12:16:49;;;;;;;10.35;1.60;;;5.90;99.90;;;;;;4967228;28;20215;-77
2023/12/20 12:19:23;;;;;;;4.15;1.45;;;5.90;99.90;;;;;;4969319;28;20828;-75
2023/12/20 12:21:49;;;;;;;1.65;1.20;;;5.90;99.90;;;;;;4966428;28;20240;-74
2023/12/20 12:24:20;;;;;;;1.20;1.10;;;6.00;99.90;;;;;;4971082;28;20212;-74
2023/12/20 12:26:52;;;;;;;2.70;1.73;;;6.00;99.90;;;;;;4965188;28;20230;-73
2023/12/20 12:29:19;;;;;;;7.85;1.42;;;6.10;99.90;;;;;;4971147;28;20601;-76
2023/12/20 12:31:45;;;;;;;3.25;1.25;;;6.10;99.90;;;;;;4970637;28;20234;-75
2023/12/20 12:34:12;;;;;;;1.27;1.00;;;6.10;99.90;;;;;;4971271;28;20212;-75
2023/12/20 12:36:40;;;;;;;2.70;1.42;;;6.20;99.90;;;;;;4970502;28;20244;-76
2023/12/20 12:39:08;;;;;;;1.55;1.13;;;6.20;99.90;;;;;;4970815;28;20731;-78
2023/12/20 12:41:35;;;;;;;1.45;1.10;;;6.20;99.90;;;;;;4971257;28;20314;-75
2023/12/20 12:44:03;;;;;;;1.55;1.25;;;6.20;99.90;;;;;;4974986;28;20215;-75
2023/12/20 12:46:30;;;;;;;3.15;1.05;;;6.20;99.90;;;;;;4973726;28;20220;-76
2023/12/20 12:48:57;;;;;;;3.78;2.17;;;6.30;99.90;;;;;;4974039;28;20677;-77
2023/12/20 12:51:23;;;;;;;1.20;1.02;;;6.40;99.90;;;;;;4974630;28;20228;-77
2023/12/20 12:53:50;;;;;;;3.08;1.52;;;6.40;99.90;;;;;;4968811;28;20577;-76
2023/12/20 12:56:17;;;;;;;1.90;0.85;;;6.50;99.90;;;;;;4974298;28;20209;-76
2023/12/20 12:58:44;;;;;;;3.30;1.02;;;6.50;99.90;;;;;;4969640;28;20211;-73
2023/12/20 13:01:13;;;;;;;3.47;1.27;;;6.40;99.90;;;;;;4974859;28;20283;-75
2023/12/20 13:03:41;;;;;;;2.30;1.00;;;6.40;99.90;;;;;;4968751;28;20204;-74
2023/12/20 13:06:08;;;;;;;1.60;1.45;;;6.30;99.90;;;;;;4974716;28;20255;-77
2023/12/20 13:08:36;;;;;;;3.30;1.17;;;6.20;99.90;;;;;;4971602;28;20259;-75
2023/12/20 13:11:04;;;;;;;1.70;1.02;;;6.20;99.90;;;;;;4974448;28;20575;-74
2023/12/20 13:13:31;;;;;;;2.17;1.25;;;6.10;99.90;;;;;;4973765;28;20684;-75
2023/12/20 13:15:58;;;;;;;1.92;1.10;;;6.10;99.90;;;;;;4974525;28;20212;-76
2023/12/20 13:18:27;;;;;;;1.33;1.20;;;6.10;99.90;;;;;;4974205;28;20271;-75
2023/12/20 13:20:54;;;;;;;1.10;1.00;;;6.10;99.90;;;;;;4969090;28;20652;-75
2023/12/20 13:23:21;;;;;;;1.88;1.05;;;6.10;99.90;;;;;;4974488;28;20208;-73
2023/12/20 13:25:49;;;;;;;1.50;1.40;;;6.10;99.90;;;;;;4975060;28;20756;-75
2023/12/20 13:28:17;;;;;;;2.08;1.10;;;6.10;99.90;;;;;;4974493;28;20805;-75
2023/12/20 13:30:44;;;;;;;3.05;1.63;;;6.10;99.90;;;;;;4973863;28;20300;-75
2023/12/20 13:33:12;;;;;;;4.07;1.88;;;6.10;99.90;;;;;;4974201;28;20259;-74
2023/12/20 13:35:41;;;;;;;2.55;1.10;;;6.10;99.90;;;;;;4974515;28;20212;-75
2023/12/20 13:38:09;;;;;;;3.10;1.10;;;6.20;99.90;;;;;;4968950;28;20632;-73
2023/12/20 13:40:36;;;;;;;6.07;1.35;;;6.30;99.90;;;;;;4972734;28;20310;-73
2023/12/20 13:43:04;;;;;;;2.60;2.13;;;6.30;99.90;;;;;;4960999;28;20209;-74
2023/12/20 13:45:31;;;;;;;3.50;1.52;;;6.30;99.90;;;;;;4973530;28;20590;-76
2023/12/20 13:47:59;;;;;;;0.80;0.70;;;6.10;99.90;;;;;;4966952;28;20231;-75
2023/12/20 13:50:27;;;;;;;1.45;1.13;;;6.10;99.90;;;;;;4969881;28;20619;-74
2023/12/20 13:52:58;;;;;;;1.60;0.95;;;6.00;99.90;;;;;;4966791;28;20219;-77
2023/12/20 13:55:27;;;;;;;1.10;0.75;;;5.90;99.90;;;;;;4973020;28;20224;-75
2023/12/20 13:57:54;;;;;;;1.10;0.80;;;5.90;99.90;;;;;;4971319;28;20683;-74
2023/12/20 14:00:21;;;;;;;1.27;1.15;;;5.90;99.90;;;;;;4973157;28;20215;-75
2023/12/20 14:02:49;;;;;;;0.88;0.77;;;5.90;99.90;;;;;;4978163;28;20298;-75
2023/12/20 14:05:17;;;;;;;1.15;1.05;;;5.80;99.90;;;;;;4975957;28;20215;-76
2023/12/20 14:07:45;;;;;;;1.75;1.23;;;5.80;99.90;;;;;;4976303;28;20225;-76
2023/12/20 14:10:14;;;;;;;1.42;0.90;;;5.70;99.90;;;;;;4973333;28;20215;-74
2023/12/20 14:12:41;;;;;;;2.25;1.60;;;5.70;99.90;;;;;;4972830;28;20218;-74
2023/12/20 14:15:11;;;;;;;2.47;0.90;;;5.60;99.90;;;;;;4973312;28;20310;-77
2023/12/20 14:17:38;;;;;;;1.50;0.95;;;5.60;99.90;;;;;;4972820;28;20578;-77
2023/12/20 14:20:07;;;;;;;1.10;0.90;;;5.60;99.90;;;;;;4972769;28;20211;-76
2023/12/20 14:22:34;;;;;;;1.50;1.10;;;5.60;99.90;;;;;;4969767;28;20294;-77
2023/12/20 14:25:01;;;;;;;1.00;0.85;;;5.60;99.90;;;;;;4973181;28;20295;-77
2023/12/20 14:27:29;;;;;;;1.17;1.05;;;5.60;99.90;;;;;;4972579;28;20223;-76
2023/12/20 14:29:56;;;;;;;2.00;1.38;;;5.50;99.90;;;;;;4971933;28;20212;-78
2023/12/20 14:32:23;;;;;;;1.33;1.23;;;5.50;99.90;;;;;;4972805;28;20235;-77
2023/12/20 14:34:49;;;;;;;3.05;1.52;;;5.50;99.90;;;;;;4972214;28;20212;-77
2023/12/20 14:37:17;;;;;;;1.65;0.90;;;5.50;99.90;;;;;;4972714;28;20206;-78
2023/12/20 14:39:44;;;;;;;1.50;1.10;;;5.40;99.90;;;;;;4971450;28;20291;-77
2023/12/20 14:42:13;;;;;;;1.88;1.63;;;5.40;99.90;;;;;;4971672;28;20216;-77
2023/12/20 14:44:42;;;;;;;1.90;1.00;;;5.40;99.90;;;;;;4972232;28;20204;-78
2023/12/20 14:47:09;;;;;;;4.00;1.00;;;5.40;99.90;;;;;;4972426;28;20219;-77
2023/12/20 14:49:37;;;;;;;1.10;1.00;;;5.40;99.90;;;;;;4972516;28;20212;-78
2023/12/20 14:52:04;;;;;;;1.42;1.20;;;5.40;99.90;;;;;;4972779;28;20235;-78
2023/12/20 14:54:31;;;;;;;1.10;0.95;;;5.40;99.90;;;;;;4972572;28;20203;-76
2023/12/20 14:56:58;;;;;;;1.05;0.95;;;5.30;99.90;;;;;;4967695;28;20217;-78
2023/12/20 14:59:25;;;;;;;2.88;0.93;;;5.30;99.90;;;;;;4966686;28;20204;-77
2023/12/20 15:01:54;;;;;;;0.88;0.80;;;5.20;99.90;;;;;;4970936;28;20718;-76
2023/12/20 15:04:28;;;;;;;1.98;1.77;;;5.20;99.90;;;;;;4968586;28;20562;-76
2023/12/20 15:06:55;;;;;;;3.50;1.40;;;5.10;99.90;;;;;;4964064;28;20700;-76
2023/12/20 15:09:21;;;;;;;1.23;1.10;;;5.10;99.90;;;;;;4966785;28;20205;-78
2023/12/20 15:11:48;;;;;;;2.15;1.10;;;5.00;99.90;;;;;;4971744;28;20255;-76
2023/12/20 15:14:19;;;;;;;1.08;0.85;;;4.90;99.90;;;;;;4972135;28;20296;-77
2023/12/20 15:16:46;;;;;;;1.15;1.05;;;4.80;99.90;;;;;;4979449;28;20226;-77
2023/12/20 15:19:15;;;;;;;1.63;1.25;;;4.80;99.90;;;;;;4973748;28;20208;-77
2023/12/20 15:21:42;;;;;;;3.47;1.77;;;4.80;99.90;;;;;;4971729;28;20233;-76
2023/12/20 15:24:14;;;;;;;1.13;1.02;;;4.80;99.90;;;;;;4971838;28;20204;-76
2023/12/20 15:26:41;;;;;;;2.67;1.20;;;4.80;99.90;;;;;;4970366;28;20822;-75
2023/12/20 15:29:09;;;;;;;2.17;1.10;;;4.70;99.90;;;;;;4969983;28;20211;-76
2023/12/20 15:31:37;;;;;;;1.20;0.90;;;4.70;99.90;;;;;;4970955;28;20803;-75
2023/12/20 15:34:03;;;;;;;1.00;0.80;;;4.60;99.90;;;;;;4970621;28;20593;-75
2023/12/20 15:36:31;;;;;;;1.33;1.15;;;4.50;99.90;;;;;;4971287;28;20216;-77
2023/12/20 15:38:58;;;;;;;2.17;1.98;;;4.50;99.90;;;;;;4967555;28;20210;-74
2023/12/20 15:41:25;;;;;;;7.03;1.95;;;4.40;99.90;;;;;;4971419;28;20219;-79
2023/12/20 15:43:52;;;;;;;4.28;1.50;;;4.50;99.90;;;;;;4972671;28;20211;-76
2023/12/20 15:46:18;;;;;;;2.75;1.83;;;4.50;99.90;;;;;;4971615;28;20219;-75
2023/12/20 15:48:45;;;;;;;3.80;1.67;;;4.40;99.90;;;;;;4971131;28;20246;-76
2023/12/20 15:51:12;;;;;;;3.10;1.20;;;4.40;99.90;;;;;;4971052;28;20226;-76
2023/12/20 15:53:40;;;;;;;2.17;1.67;;;4.40;99.90;;;;;;4972633;28;20644;-75
2023/12/20 15:56:07;;;;;;;1.10;1.00;;;4.40;99.90;;;;;;4971725;28;20222;-75
2023/12/20 15:58:34;;;;;;;2.00;1.15;;;4.40;99.90;;;;;;4966876;28;20207;-75
2023/12/20 16:01:01;;;;;;;4.07;1.52;;;4.30;99.90;;;;;;4970363;28;20233;-75
2023/12/20 16:03:28;;;;;;;1.33;1.10;;;4.30;99.90;;;;;;4970920;28;20308;-75
2023/12/20 16:05:55;;;;;;;2.50;1.73;;;4.30;99.90;;;;;;4970212;28;20218;-76
2023/12/20 16:08:21;;;;;;;6.22;1.77;;;4.30;99.90;;;;;;4970337;28;20222;-75
2023/12/20 16:10:49;;;;;;;4.18;1.48;;;4.20;99.90;;;;;;4970129;28;20231;-75
2023/12/20 16:13:16;;;;;;;4.40;1.70;;;4.30;99.90;;;;;;4970824;28;20214;-75
2023/12/20 16:15:43;;;;;;;2.72;1.58;;;4.30;99.90;;;;;;4971407;28;20200;-77
2023/12/20 16:18:11;;;;;;;1.85;1.40;;;4.40;99.90;;;;;;4977200;28;20225;-78
2023/12/20 16:20:38;;;;;;;7.93;1.42;;;4.30;99.90;;;;;;4974987;28;20307;-75
2023/12/20 16:23:09;;;;;;;2.20;1.85;;;4.40;99.90;;;;;;4979702;28;20253;-75
2023/12/20 16:25:37;;;;;;;3.00;1.65;;;4.40;99.90;;;;;;4975188;28;20222;-75
2023/12/20 16:28:06;;;;;;;4.75;1.45;;;4.30;99.90;;;;;;4974449;28;20227;-75
2023/12/20 16:30:33;;;;;;;1.40;0.95;;;4.30;99.90;;;;;;4971225;28;20221;-76
2023/12/20 16:33:00;;;;;;;1.30;1.20;;;4.20;99.90;;;;;;4973992;28;20222;-75
2023/12/20 16:35:26;;;;;;;2.20;1.30;;;4.20;99.90;;;;;;4974527;28;20214;-76
2023/12/20 16:37:53;;;;;;;1.65;1.30;;;4.20;99.90;;;;;;4974311;28;20219;-79
2023/12/20 16:40:24;;;;;;;1.00;0.90;;;4.20;99.90;;;;;;4974559;28;20218;-75
2023/12/20 16:42:51;;;;;;;0.90;0.80;;;4.20;99.90;;;;;;4972451;28;20224;-76
2023/12/20 16:45:20;;;;;;;1.00;0.80;;;4.10;99.90;;;;;;4973756;28;20208;-75
2023/12/20 16:47:46;;;;;;;1.83;1.20;;;4.10;99.90;;;;;;4973295;28;20237;-76
2023/12/20 16:50:13;;;;;;;4.40;1.30;;;4.10;99.90;;;;;;4972533;28;20216;-78
2023/12/20 16:52:40;;;;;;;1.10;1.00;;;4.10;99.90;;;;;;4973815;28;20775;-77
2023/12/20 16:55:10;;;;;;;3.95;1.50;;;4.10;99.90;;;;;;4972432;28;20225;-74
2023/12/20 16:57:36;;;;;;;0.98;0.88;;;4.10;99.90;;;;;;4968520;28;20570;-78
2023/12/20 17:00:05;;;;;;;1.10;1.00;;;4.00;99.90;;;;;;4972481;28;20593;-75
2023/12/20 17:02:33;;;;;;;1.10;1.00;;;4.10;99.90;;;;;;4973221;28;20221;-77
2023/12/20 17:04:59;;;;;;;3.03;1.42;;;4.10;99.90;;;;;;4972210;28;20222;-77
2023/12/20 17:07:27;;;;;;;2.70;1.02;;;4.10;99.90;;;;;;4973424;28;20225;-76
2023/12/20 17:09:54;;;;;;;1.35;1.10;;;4.10;99.90;;;;;;4972380;28;20681;-79
2023/12/20 17:12:21;;;;;;;4.82;1.27;;;4.10;99.90;;;;;;4965205;28;20223;-76
2023/12/20 17:14:47;;;;;;;1.85;1.45;;;4.10;99.90;;;;;;4971257;28;20231;-79